KNQX/NQX METAR and TAF weather

Enter ICAO airport designator
Station Type Date Time Source
KNQX METAR 2020/12/05 05:53 UTC NOAA

KNQX 050553Z AUTO 14005KT 10SM BKN060 23/21 A3006 RMK AO2 SLP179 T02280206 10239 20222 58009


Station Type Date Time Source
KNQX Decoded METAR 2020/12/05 05:53 UTC NOAA

KEY WEST NAVAL AIR STATION, FL, United States (KNQX) 24-35N 81-41W 6M
Dec 05, 2020 - 12:53 AM EST / 2020.12.05 0553 UTC
Wind: from the SE (140 degrees) at 6 MPH (5 KT):0
Visibility: 10 mile(s):0
Sky conditions: mostly cloudy
Temperature: 73.0 F (22.8 C)
Dew Point: 69.1 F (20.6 C)
Relative Humidity: 87%
Pressure (altimeter): 30.06 in. Hg (1017 hPa)
Pressure tendency: 0.03 inches (0.9 hPa) lower than three hours ago
ob: KNQX 050553Z AUTO 14005KT 10SM BKN060 23/21 A3006 RMK AO2 SLP179 T02280206 10239 20222 58009
cycle: 6

Station Type Date Time Source
KNQX TAF 2020/12/04 23:09 UTC NOAA

TAF KNQX 0423/0523 14008KT 9999 VCSH FEW025 OVC200 QNH3001INS
FM050600 VRB05KT 9999 FEW020 BKN150 QNH2999INS AUTOMATED SENSOR METWATCH 0503 TIL 0511 T19/0512Z T26/0519Z FN20073

Example: see airport list